sensor_id;sensor_type;location;lat;lon;timestamp;P1;durP1;ratioP1;P2;durP2;ratioP2
12059;SDS011;6091;51.432;6.880;2022-12-29T00:00:55;0.40;;;0.40;;
12059;SDS011;6091;51.432;6.880;2022-12-29T00:03:22;0.30;;;0.30;;
12059;SDS011;6091;51.432;6.880;2022-12-29T00:05:55;0.40;;;0.40;;
12059;SDS011;6091;51.432;6.880;2022-12-29T00:08:23;0.30;;;0.30;;
12059;SDS011;6091;51.432;6.880;2022-12-29T00:11:13;0.60;;;0.60;;
12059;SDS011;6091;51.432;6.880;2022-12-29T00:13:46;0.38;;;0.38;;
12059;SDS011;6091;51.432;6.880;2022-12-29T00:16:33;0.30;;;0.30;;
12059;SDS011;6091;51.432;6.880;2022-12-29T00:19:02;0.40;;;0.40;;
12059;SDS011;6091;51.432;6.880;2022-12-29T00:21:30;0.45;;;0.40;;
12059;SDS011;6091;51.432;6.880;2022-12-29T00:24:18;0.30;;;0.30;;
12059;SDS011;6091;51.432;6.880;2022-12-29T00:29:52;0.50;;;0.50;;
12059;SDS011;6091;51.432;6.880;2022-12-29T00:32:38;0.40;;;0.40;;
12059;SDS011;6091;51.432;6.880;2022-12-29T00:36:07;0.50;;;0.40;;
12059;SDS011;6091;51.432;6.880;2022-12-29T00:38:20;0.40;;;0.40;;
12059;SDS011;6091;51.432;6.880;2022-12-29T00:41:06;0.75;;;0.50;;
12059;SDS011;6091;51.432;6.880;2022-12-29T00:43:51;0.50;;;0.50;;
12059;SDS011;6091;51.432;6.880;2022-12-29T00:46:34;0.38;;;0.38;;
12059;SDS011;6091;51.432;6.880;2022-12-29T00:49:10;0.50;;;0.50;;
12059;SDS011;6091;51.432;6.880;2022-12-29T00:52:05;0.40;;;0.40;;
12059;SDS011;6091;51.432;6.880;2022-12-29T00:54:36;0.40;;;0.40;;
12059;SDS011;6091;51.432;6.880;2022-12-29T00:57:06;0.30;;;0.30;;
12059;SDS011;6091;51.432;6.880;2022-12-29T00:59:36;0.77;;;0.45;;
12059;SDS011;6091;51.432;6.880;2022-12-29T01:02:05;0.40;;;0.40;;
12059;SDS011;6091;51.432;6.880;2022-12-29T01:04:33;0.40;;;0.40;;
12059;SDS011;6091;51.432;6.880;2022-12-29T01:07:01;0.40;;;0.40;;
12059;SDS011;6091;51.432;6.880;2022-12-29T01:09:28;0.40;;;0.40;;
12059;SDS011;6091;51.432;6.880;2022-12-29T01:12:13;0.32;;;0.32;;
12059;SDS011;6091;51.432;6.880;2022-12-29T01:14:40;0.60;;;0.60;;
12059;SDS011;6091;51.432;6.880;2022-12-29T01:17:08;0.40;;;0.40;;
12059;SDS011;6091;51.432;6.880;2022-12-29T01:19:35;0.43;;;0.43;;
12059;SDS011;6091;51.432;6.880;2022-12-29T01:22:02;0.30;;;0.30;;
12059;SDS011;6091;51.432;6.880;2022-12-29T01:24:29;0.40;;;0.40;;
12059;SDS011;6091;51.432;6.880;2022-12-29T01:26:56;0.35;;;0.35;;
12059;SDS011;6091;51.432;6.880;2022-12-29T01:29:23;0.40;;;0.40;;
12059;SDS011;6091;51.432;6.880;2022-12-29T01:31:50;1.00;;;0.52;;
12059;SDS011;6091;51.432;6.880;2022-12-29T01:34:17;0.35;;;0.25;;
12059;SDS011;6091;51.432;6.880;2022-12-29T01:36:44;0.40;;;0.40;;
12059;SDS011;6091;51.432;6.880;2022-12-29T01:39:11;0.30;;;0.30;;
12059;SDS011;6091;51.432;6.880;2022-12-29T01:41:39;0.40;;;0.40;;
12059;SDS011;6091;51.432;6.880;2022-12-29T01:47:22;0.40;;;0.40;;
12059;SDS011;6091;51.432;6.880;2022-12-29T01:50:05;0.50;;;0.50;;
12059;SDS011;6091;51.432;6.880;2022-12-29T01:52:38;0.40;;;0.40;;
12059;SDS011;6091;51.432;6.880;2022-12-29T01:55:19;0.25;;;0.22;;
12059;SDS011;6091;51.432;6.880;2022-12-29T01:57:47;0.30;;;0.30;;
12059;SDS011;6091;51.432;6.880;2022-12-29T02:00:18;0.57;;;0.40;;
12059;SDS011;6091;51.432;6.880;2022-12-29T02:02:47;0.50;;;0.40;;
12059;SDS011;6091;51.432;6.880;2022-12-29T02:05:27;0.35;;;0.35;;
12059;SDS011;6091;51.432;6.880;2022-12-29T02:08:19;0.47;;;0.47;;
12059;SDS011;6091;51.432;6.880;2022-12-29T02:10:50;0.35;;;0.30;;
12059;SDS011;6091;51.432;6.880;2022-12-29T02:13:17;0.40;;;0.40;;
12059;SDS011;6091;51.432;6.880;2022-12-29T02:18:53;0.50;;;0.50;;
12059;SDS011;6091;51.432;6.880;2022-12-29T02:21:34;0.50;;;0.50;;
12059;SDS011;6091;51.432;6.880;2022-12-29T02:41:46;0.35;;;0.30;;
12059;SDS011;6091;51.432;6.880;2022-12-29T02:50:54;0.30;;;0.30;;
12059;SDS011;6091;51.432;6.880;2022-12-29T02:53:38;0.30;;;0.30;;
12059;SDS011;6091;51.432;6.880;2022-12-29T02:56:25;0.43;;;0.43;;
12059;SDS011;6091;51.432;6.880;2022-12-29T02:58:52;0.30;;;0.30;;
12059;SDS011;6091;51.432;6.880;2022-12-29T03:01:42;0.40;;;0.40;;
12059;SDS011;6091;51.432;6.880;2022-12-29T03:08:00;0.82;;;0.50;;
12059;SDS011;6091;51.432;6.880;2022-12-29T03:14:02;0.30;;;0.30;;
12059;SDS011;6091;51.432;6.880;2022-12-29T03:17:24;0.47;;;0.47;;
12059;SDS011;6091;51.432;6.880;2022-12-29T03:20:07;0.43;;;0.43;;
12059;SDS011;6091;51.432;6.880;2022-12-29T03:22:40;0.40;;;0.40;;
12059;SDS011;6091;51.432;6.880;2022-12-29T03:25:15;0.43;;;0.43;;
12059;SDS011;6091;51.432;6.880;2022-12-29T03:27:58;0.50;;;0.50;;
12059;SDS011;6091;51.432;6.880;2022-12-29T03:30:32;0.30;;;0.30;;
12059;SDS011;6091;51.432;6.880;2022-12-29T03:33:03;0.32;;;0.32;;
12059;SDS011;6091;51.432;6.880;2022-12-29T03:35:37;0.32;;;0.32;;
12059;SDS011;6091;51.432;6.880;2022-12-29T03:38:16;0.40;;;0.40;;
12059;SDS011;6091;51.432;6.880;2022-12-29T03:40:55;0.30;;;0.30;;
12059;SDS011;6091;51.432;6.880;2022-12-29T03:43:26;0.40;;;0.40;;
12059;SDS011;6091;51.432;6.880;2022-12-29T03:45:54;0.40;;;0.40;;
12059;SDS011;6091;51.432;6.880;2022-12-29T03:48:21;0.35;;;0.30;;
12059;SDS011;6091;51.432;6.880;2022-12-29T03:50:48;0.40;;;0.40;;
12059;SDS011;6091;51.432;6.880;2022-12-29T03:53:15;0.30;;;0.30;;
12059;SDS011;6091;51.432;6.880;2022-12-29T03:55:43;0.30;;;0.30;;
12059;SDS011;6091;51.432;6.880;2022-12-29T03:58:10;0.32;;;0.32;;
12059;SDS011;6091;51.432;6.880;2022-12-29T04:00:38;0.32;;;0.32;;
12059;SDS011;6091;51.432;6.880;2022-12-29T04:03:05;0.30;;;0.30;;
12059;SDS011;6091;51.432;6.880;2022-12-29T04:05:32;0.30;;;0.30;;
12059;SDS011;6091;51.432;6.880;2022-12-29T04:07:59;0.30;;;0.30;;
12059;SDS011;6091;51.432;6.880;2022-12-29T04:10:26;0.30;;;0.30;;
12059;SDS011;6091;51.432;6.880;2022-12-29T04:12:53;0.20;;;0.20;;
12059;SDS011;6091;51.432;6.880;2022-12-29T04:15:19;0.30;;;0.30;;
12059;SDS011;6091;51.432;6.880;2022-12-29T04:17:46;0.30;;;0.30;;
12059;SDS011;6091;51.432;6.880;2022-12-29T04:20:13;0.30;;;0.30;;
12059;SDS011;6091;51.432;6.880;2022-12-29T04:23:00;0.40;;;0.40;;
12059;SDS011;6091;51.432;6.880;2022-12-29T04:25:28;0.40;;;0.40;;
12059;SDS011;6091;51.432;6.880;2022-12-29T04:27:58;0.30;;;0.30;;
12059;SDS011;6091;51.432;6.880;2022-12-29T04:30:25;0.35;;;0.30;;
12059;SDS011;6091;51.432;6.880;2022-12-29T04:32:52;0.40;;;0.40;;
12059;SDS011;6091;51.432;6.880;2022-12-29T04:35:21;0.20;;;0.20;;
12059;SDS011;6091;51.432;6.880;2022-12-29T04:37:48;0.30;;;0.30;;
12059;SDS011;6091;51.432;6.880;2022-12-29T04:40:15;0.40;;;0.40;;
12059;SDS011;6091;51.432;6.880;2022-12-29T04:42:43;0.30;;;0.30;;
12059;SDS011;6091;51.432;6.880;2022-12-29T04:45:10;0.30;;;0.30;;
12059;SDS011;6091;51.432;6.880;2022-12-29T04:47:37;0.20;;;0.20;;
12059;SDS011;6091;51.432;6.880;2022-12-29T04:50:04;0.40;;;0.38;;
12059;SDS011;6091;51.432;6.880;2022-12-29T04:52:32;0.40;;;0.40;;
12059;SDS011;6091;51.432;6.880;2022-12-29T04:54:59;0.30;;;0.30;;
12059;SDS011;6091;51.432;6.880;2022-12-29T04:57:27;0.30;;;0.30;;
12059;SDS011;6091;51.432;6.880;2022-12-29T04:59:54;0.43;;;0.43;;
12059;SDS011;6091;51.432;6.880;2022-12-29T05:02:21;0.30;;;0.30;;
12059;SDS011;6091;51.432;6.880;2022-12-29T05:04:48;0.30;;;0.30;;
12059;SDS011;6091;51.432;6.880;2022-12-29T05:07:17;0.77;;;0.30;;
12059;SDS011;6091;51.432;6.880;2022-12-29T05:09:45;0.30;;;0.30;;
12059;SDS011;6091;51.432;6.880;2022-12-29T05:12:14;0.30;;;0.30;;
12059;SDS011;6091;51.432;6.880;2022-12-29T05:14:43;0.30;;;0.30;;
12059;SDS011;6091;51.432;6.880;2022-12-29T05:17:10;0.30;;;0.30;;
12059;SDS011;6091;51.432;6.880;2022-12-29T05:19:37;0.40;;;0.40;;
12059;SDS011;6091;51.432;6.880;2022-12-29T05:22:04;0.30;;;0.30;;
12059;SDS011;6091;51.432;6.880;2022-12-29T05:24:31;0.30;;;0.30;;
12059;SDS011;6091;51.432;6.880;2022-12-29T05:26:58;0.40;;;0.40;;
12059;SDS011;6091;51.432;6.880;2022-12-29T05:29:25;0.40;;;0.40;;
12059;SDS011;6091;51.432;6.880;2022-12-29T05:31:55;0.40;;;0.40;;
12059;SDS011;6091;51.432;6.880;2022-12-29T05:34:22;0.30;;;0.30;;
12059;SDS011;6091;51.432;6.880;2022-12-29T05:36:49;0.35;;;0.35;;
12059;SDS011;6091;51.432;6.880;2022-12-29T05:39:17;0.40;;;0.40;;
12059;SDS011;6091;51.432;6.880;2022-12-29T05:41:44;0.40;;;0.40;;
12059;SDS011;6091;51.432;6.880;2022-12-29T05:44:11;0.40;;;0.40;;
12059;SDS011;6091;51.432;6.880;2022-12-29T05:46:38;0.30;;;0.30;;
12059;SDS011;6091;51.432;6.880;2022-12-29T05:49:05;0.30;;;0.30;;
12059;SDS011;6091;51.432;6.880;2022-12-29T05:51:33;0.30;;;0.30;;
12059;SDS011;6091;51.432;6.880;2022-12-29T05:54:00;0.30;;;0.30;;
12059;SDS011;6091;51.432;6.880;2022-12-29T05:56:27;0.30;;;0.30;;
12059;SDS011;6091;51.432;6.880;2022-12-29T05:58:53;0.30;;;0.30;;
12059;SDS011;6091;51.432;6.880;2022-12-29T06:01:20;0.30;;;0.30;;
12059;SDS011;6091;51.432;6.880;2022-12-29T06:03:48;0.40;;;0.40;;
12059;SDS011;6091;51.432;6.880;2022-12-29T06:06:16;0.43;;;0.43;;
12059;SDS011;6091;51.432;6.880;2022-12-29T06:08:43;0.30;;;0.30;;
12059;SDS011;6091;51.432;6.880;2022-12-29T06:11:10;0.30;;;0.30;;
12059;SDS011;6091;51.432;6.880;2022-12-29T06:13:37;0.40;;;0.40;;
12059;SDS011;6091;51.432;6.880;2022-12-29T06:16:04;0.32;;;0.32;;
12059;SDS011;6091;51.432;6.880;2022-12-29T06:18:32;0.25;;;0.25;;
12059;SDS011;6091;51.432;6.880;2022-12-29T06:21:03;0.22;;;0.22;;
12059;SDS011;6091;51.432;6.880;2022-12-29T06:23:32;0.30;;;0.30;;
12059;SDS011;6091;51.432;6.880;2022-12-29T06:25:59;0.30;;;0.30;;
12059;SDS011;6091;51.432;6.880;2022-12-29T06:28:26;0.57;;;0.40;;
12059;SDS011;6091;51.432;6.880;2022-12-29T06:30:53;0.35;;;0.30;;
12059;SDS011;6091;51.432;6.880;2022-12-29T06:33:20;0.30;;;0.30;;
12059;SDS011;6091;51.432;6.880;2022-12-29T06:35:48;0.30;;;0.30;;
12059;SDS011;6091;51.432;6.880;2022-12-29T06:38:15;0.40;;;0.40;;
12059;SDS011;6091;51.432;6.880;2022-12-29T06:40:42;0.30;;;0.30;;
12059;SDS011;6091;51.432;6.880;2022-12-29T06:43:11;0.30;;;0.30;;
12059;SDS011;6091;51.432;6.880;2022-12-29T06:45:39;0.40;;;0.40;;
12059;SDS011;6091;51.432;6.880;2022-12-29T06:48:06;0.30;;;0.30;;
12059;SDS011;6091;51.432;6.880;2022-12-29T06:50:34;0.47;;;0.45;;
12059;SDS011;6091;51.432;6.880;2022-12-29T06:53:01;0.95;;;0.38;;
12059;SDS011;6091;51.432;6.880;2022-12-29T06:55:29;0.50;;;0.40;;
12059;SDS011;6091;51.432;6.880;2022-12-29T06:57:56;0.30;;;0.30;;
12059;SDS011;6091;51.432;6.880;2022-12-29T07:00:24;0.38;;;0.38;;
12059;SDS011;6091;51.432;6.880;2022-12-29T07:02:54;0.30;;;0.30;;
12059;SDS011;6091;51.432;6.880;2022-12-29T07:05:24;0.30;;;0.30;;
12059;SDS011;6091;51.432;6.880;2022-12-29T07:07:54;0.22;;;0.22;;
12059;SDS011;6091;51.432;6.880;2022-12-29T07:10:21;0.35;;;0.35;;
12059;SDS011;6091;51.432;6.880;2022-12-29T07:12:49;0.30;;;0.30;;
12059;SDS011;6091;51.432;6.880;2022-12-29T07:15:16;0.40;;;0.40;;
12059;SDS011;6091;51.432;6.880;2022-12-29T07:17:43;0.68;;;0.50;;
12059;SDS011;6091;51.432;6.880;2022-12-29T07:20:11;0.30;;;0.30;;
12059;SDS011;6091;51.432;6.880;2022-12-29T07:22:38;1.45;;;0.40;;
12059;SDS011;6091;51.432;6.880;2022-12-29T07:25:05;0.40;;;0.30;;
12059;SDS011;6091;51.432;6.880;2022-12-29T07:27:34;0.40;;;0.40;;
12059;SDS011;6091;51.432;6.880;2022-12-29T07:30:01;0.40;;;0.40;;
12059;SDS011;6091;51.432;6.880;2022-12-29T07:32:31;0.50;;;0.50;;
12059;SDS011;6091;51.432;6.880;2022-12-29T07:35:00;0.40;;;0.40;;
12059;SDS011;6091;51.432;6.880;2022-12-29T07:37:27;0.90;;;0.50;;
12059;SDS011;6091;51.432;6.880;2022-12-29T07:39:54;0.40;;;0.40;;
12059;SDS011;6091;51.432;6.880;2022-12-29T07:42:21;0.55;;;0.40;;
12059;SDS011;6091;51.432;6.880;2022-12-29T07:44:48;0.40;;;0.40;;
12059;SDS011;6091;51.432;6.880;2022-12-29T07:47:15;0.73;;;0.28;;
12059;SDS011;6091;51.432;6.880;2022-12-29T07:49:42;0.30;;;0.30;;
12059;SDS011;6091;51.432;6.880;2022-12-29T07:52:09;0.40;;;0.40;;
12059;SDS011;6091;51.432;6.880;2022-12-29T07:54:36;0.75;;;0.50;;
12059;SDS011;6091;51.432;6.880;2022-12-29T07:57:04;0.40;;;0.40;;
12059;SDS011;6091;51.432;6.880;2022-12-29T07:59:32;0.30;;;0.30;;
12059;SDS011;6091;51.432;6.880;2022-12-29T08:01:59;0.40;;;0.40;;
12059;SDS011;6091;51.432;6.880;2022-12-29T08:04:27;0.95;;;0.47;;
12059;SDS011;6091;51.432;6.880;2022-12-29T08:06:54;0.50;;;0.40;;
12059;SDS011;6091;51.432;6.880;2022-12-29T08:09:23;1.45;;;0.60;;
12059;SDS011;6091;51.432;6.880;2022-12-29T08:11:50;0.45;;;0.40;;
12059;SDS011;6091;51.432;6.880;2022-12-29T08:14:17;0.57;;;0.40;;
12059;SDS011;6091;51.432;6.880;2022-12-29T08:16:44;2.13;;;0.50;;
12059;SDS011;6091;51.432;6.880;2022-12-29T08:19:12;2.88;;;0.80;;
12059;SDS011;6091;51.432;6.880;2022-12-29T08:21:39;1.80;;;0.43;;
12059;SDS011;6091;51.432;6.880;2022-12-29T08:24:07;9.43;;;0.90;;
12059;SDS011;6091;51.432;6.880;2022-12-29T08:26:35;2.90;;;0.93;;
12059;SDS011;6091;51.432;6.880;2022-12-29T08:29:02;3.90;;;0.73;;
12059;SDS011;6091;51.432;6.880;2022-12-29T08:31:29;2.22;;;0.70;;
12059;SDS011;6091;51.432;6.880;2022-12-29T08:33:56;2.13;;;0.70;;
12059;SDS011;6091;51.432;6.880;2022-12-29T08:36:26;2.10;;;0.70;;
12059;SDS011;6091;51.432;6.880;2022-12-29T08:38:53;2.17;;;0.60;;
12059;SDS011;6091;51.432;6.880;2022-12-29T08:41:20;2.65;;;0.60;;
12059;SDS011;6091;51.432;6.880;2022-12-29T08:43:48;1.67;;;0.80;;
12059;SDS011;6091;51.432;6.880;2022-12-29T08:46:16;1.80;;;0.80;;
12059;SDS011;6091;51.432;6.880;2022-12-29T08:48:43;1.10;;;0.50;;
12059;SDS011;6091;51.432;6.880;2022-12-29T08:51:10;2.60;;;0.70;;
12059;SDS011;6091;51.432;6.880;2022-12-29T08:53:38;2.05;;;0.40;;
12059;SDS011;6091;51.432;6.880;2022-12-29T08:56:05;1.15;;;0.65;;
12059;SDS011;6091;51.432;6.880;2022-12-29T08:58:33;1.58;;;0.68;;
12059;SDS011;6091;51.432;6.880;2022-12-29T09:01:00;1.70;;;0.70;;
12059;SDS011;6091;51.432;6.880;2022-12-29T09:03:27;1.02;;;0.80;;
12059;SDS011;6091;51.432;6.880;2022-12-29T09:06:14;4.50;;;1.00;;
12059;SDS011;6091;51.432;6.880;2022-12-29T09:08:43;3.13;;;0.73;;
12059;SDS011;6091;51.432;6.880;2022-12-29T09:11:12;1.98;;;0.57;;
12059;SDS011;6091;51.432;6.880;2022-12-29T09:13:51;1.27;;;0.70;;
12059;SDS011;6091;51.432;6.880;2022-12-29T09:16:20;2.05;;;0.75;;
12059;SDS011;6091;51.432;6.880;2022-12-29T09:18:50;2.17;;;0.70;;
12059;SDS011;6091;51.432;6.880;2022-12-29T09:21:17;5.63;;;1.23;;
12059;SDS011;6091;51.432;6.880;2022-12-29T09:23:44;1.65;;;0.70;;
12059;SDS011;6091;51.432;6.880;2022-12-29T09:26:12;1.65;;;0.95;;
12059;SDS011;6091;51.432;6.880;2022-12-29T09:28:39;3.05;;;0.77;;
12059;SDS011;6091;51.432;6.880;2022-12-29T09:31:08;1.73;;;0.70;;
12059;SDS011;6091;51.432;6.880;2022-12-29T09:33:35;2.85;;;0.70;;
12059;SDS011;6091;51.432;6.880;2022-12-29T09:36:02;3.50;;;0.60;;
12059;SDS011;6091;51.432;6.880;2022-12-29T09:38:30;3.15;;;0.73;;
12059;SDS011;6091;51.432;6.880;2022-12-29T09:46:28;2.45;;;0.70;;
12059;SDS011;6091;51.432;6.880;2022-12-29T09:49:14;4.63;;;0.90;;
12059;SDS011;6091;51.432;6.880;2022-12-29T09:51:59;2.85;;;0.93;;
12059;SDS011;6091;51.432;6.880;2022-12-29T09:55:05;2.80;;;0.80;;
12059;SDS011;6091;51.432;6.880;2022-12-29T09:57:36;3.15;;;0.93;;
12059;SDS011;6091;51.432;6.880;2022-12-29T10:00:14;4.80;;;1.40;;
12059;SDS011;6091;51.432;6.880;2022-12-29T10:02:54;3.33;;;1.00;;
12059;SDS011;6091;51.432;6.880;2022-12-29T10:08:14;1.40;;;0.77;;
12059;SDS011;6091;51.432;6.880;2022-12-29T10:20:10;1.52;;;0.70;;
12059;SDS011;6091;51.432;6.880;2022-12-29T10:25:56;5.65;;;1.30;;
12059;SDS011;6091;51.432;6.880;2022-12-29T10:31:21;2.63;;;0.73;;
12059;SDS011;6091;51.432;6.880;2022-12-29T10:33:53;1.83;;;0.85;;
12059;SDS011;6091;51.432;6.880;2022-12-29T10:36:32;2.25;;;0.88;;
12059;SDS011;6091;51.432;6.880;2022-12-29T10:39:29;2.72;;;0.70;;
12059;SDS011;6091;51.432;6.880;2022-12-29T10:42:04;1.92;;;1.02;;
12059;SDS011;6091;51.432;6.880;2022-12-29T10:44:46;3.10;;;1.15;;
12059;SDS011;6091;51.432;6.880;2022-12-29T10:47:21;1.02;;;0.68;;
12059;SDS011;6091;51.432;6.880;2022-12-29T10:49:57;1.98;;;0.80;;
12059;SDS011;6091;51.432;6.880;2022-12-29T10:52:26;3.55;;;0.80;;
12059;SDS011;6091;51.432;6.880;2022-12-29T10:55:05;1.38;;;0.90;;
12059;SDS011;6091;51.432;6.880;2022-12-29T10:57:47;1.88;;;0.90;;
12059;SDS011;6091;51.432;6.880;2022-12-29T11:00:19;2.63;;;0.65;;
12059;SDS011;6091;51.432;6.880;2022-12-29T11:08:28;2.50;;;1.10;;
12059;SDS011;6091;51.432;6.880;2022-12-29T11:11:03;1.90;;;0.80;;
12059;SDS011;6091;51.432;6.880;2022-12-29T11:13:56;3.30;;;1.20;;
12059;SDS011;6091;51.432;6.880;2022-12-29T11:16:33;3.33;;;1.00;;
12059;SDS011;6091;51.432;6.880;2022-12-29T11:19:01;1.98;;;1.02;;
12059;SDS011;6091;51.432;6.880;2022-12-29T11:24:02;4.88;;;1.00;;
12059;SDS011;6091;51.432;6.880;2022-12-29T11:26:32;1.42;;;0.80;;
12059;SDS011;6091;51.432;6.880;2022-12-29T11:32:10;1.55;;;0.80;;
12059;SDS011;6091;51.432;6.880;2022-12-29T11:34:55;2.85;;;0.90;;
12059;SDS011;6091;51.432;6.880;2022-12-29T11:37:36;3.38;;;1.10;;
12059;SDS011;6091;51.432;6.880;2022-12-29T11:40:15;1.50;;;0.90;;
12059;SDS011;6091;51.432;6.880;2022-12-29T11:42:53;3.70;;;1.23;;
12059;SDS011;6091;51.432;6.880;2022-12-29T11:45:25;2.45;;;0.90;;
12059;SDS011;6091;51.432;6.880;2022-12-29T11:48:00;3.80;;;1.23;;
12059;SDS011;6091;51.432;6.880;2022-12-29T11:50:39;3.35;;;1.10;;
12059;SDS011;6091;51.432;6.880;2022-12-29T11:56:16;3.50;;;1.55;;
12059;SDS011;6091;51.432;6.880;2022-12-29T11:58:48;4.97;;;1.45;;
12059;SDS011;6091;51.432;6.880;2022-12-29T12:01:18;7.03;;;1.30;;
12059;SDS011;6091;51.432;6.880;2022-12-29T12:04:14;2.38;;;1.30;;
12059;SDS011;6091;51.432;6.880;2022-12-29T12:07:00;1.98;;;1.17;;
12059;SDS011;6091;51.432;6.880;2022-12-29T12:10:01;1.63;;;1.30;;
12059;SDS011;6091;51.432;6.880;2022-12-29T12:12:41;2.85;;;1.30;;
12059;SDS011;6091;51.432;6.880;2022-12-29T12:15:29;1.83;;;0.95;;
12059;SDS011;6091;51.432;6.880;2022-12-29T12:18:21;1.45;;;0.90;;
12059;SDS011;6091;51.432;6.880;2022-12-29T12:21:13;3.92;;;1.10;;
12059;SDS011;6091;51.432;6.880;2022-12-29T12:23:56;3.95;;;1.35;;
12059;SDS011;6091;51.432;6.880;2022-12-29T12:26:49;1.63;;;1.05;;
12059;SDS011;6091;51.432;6.880;2022-12-29T12:29:33;4.05;;;0.93;;
12059;SDS011;6091;51.432;6.880;2022-12-29T12:32:41;2.10;;;0.80;;
12059;SDS011;6091;51.432;6.880;2022-12-29T12:35:49;4.55;;;1.13;;
12059;SDS011;6091;51.432;6.880;2022-12-29T12:44:25;1.40;;;0.90;;
12059;SDS011;6091;51.432;6.880;2022-12-29T12:56:27;3.33;;;1.00;;
12059;SDS011;6091;51.432;6.880;2022-12-29T13:04:30;1.33;;;0.90;;
12059;SDS011;6091;51.432;6.880;2022-12-29T13:10:26;2.55;;;1.00;;
12059;SDS011;6091;51.432;6.880;2022-12-29T13:18:48;4.28;;;1.20;;
12059;SDS011;6091;51.432;6.880;2022-12-29T13:30:17;2.63;;;1.38;;
12059;SDS011;6091;51.432;6.880;2022-12-29T13:38:46;2.33;;;0.93;;
12059;SDS011;6091;51.432;6.880;2022-12-29T13:41:46;1.55;;;0.90;;
12059;SDS011;6091;51.432;6.880;2022-12-29T13:44:25;1.48;;;1.08;;
12059;SDS011;6091;51.432;6.880;2022-12-29T13:50:15;1.83;;;1.02;;
12059;SDS011;6091;51.432;6.880;2022-12-29T13:58:26;1.85;;;1.27;;
12059;SDS011;6091;51.432;6.880;2022-12-29T14:01:21;1.88;;;1.00;;
12059;SDS011;6091;51.432;6.880;2022-12-29T14:04:20;1.20;;;0.90;;
12059;SDS011;6091;51.432;6.880;2022-12-29T14:07:04;1.75;;;0.75;;
12059;SDS011;6091;51.432;6.880;2022-12-29T14:17:35;0.77;;;0.70;;
12059;SDS011;6091;51.432;6.880;2022-12-29T14:20:15;1.83;;;0.90;;
12059;SDS011;6091;51.432;6.880;2022-12-29T14:23:01;1.75;;;1.00;;
12059;SDS011;6091;51.432;6.880;2022-12-29T14:31:52;0.90;;;0.90;;
12059;SDS011;6091;51.432;6.880;2022-12-29T14:44:48;1.10;;;0.80;;
12059;SDS011;6091;51.432;6.880;2022-12-29T14:47:35;1.00;;;0.80;;
12059;SDS011;6091;51.432;6.880;2022-12-29T14:50:22;1.00;;;0.70;;
12059;SDS011;6091;51.432;6.880;2022-12-29T14:52:54;1.17;;;0.80;;
12059;SDS011;6091;51.432;6.880;2022-12-29T14:55:42;0.80;;;0.70;;
12059;SDS011;6091;51.432;6.880;2022-12-29T15:00:58;3.38;;;1.05;;
12059;SDS011;6091;51.432;6.880;2022-12-29T15:08:43;1.40;;;1.05;;
12059;SDS011;6091;51.432;6.880;2022-12-29T15:14:02;3.95;;;1.10;;
12059;SDS011;6091;51.432;6.880;2022-12-29T15:16:52;1.98;;;0.93;;
12059;SDS011;6091;51.432;6.880;2022-12-29T15:19:23;1.92;;;0.93;;
12059;SDS011;6091;51.432;6.880;2022-12-29T15:21:52;2.47;;;0.98;;
12059;SDS011;6091;51.432;6.880;2022-12-29T15:24:21;2.40;;;0.80;;
12059;SDS011;6091;51.432;6.880;2022-12-29T15:26:52;1.50;;;1.08;;
12059;SDS011;6091;51.432;6.880;2022-12-29T15:29:37;3.42;;;1.00;;
12059;SDS011;6091;51.432;6.880;2022-12-29T15:34:55;2.38;;;1.08;;
12059;SDS011;6091;51.432;6.880;2022-12-29T15:37:34;3.03;;;1.20;;
12059;SDS011;6091;51.432;6.880;2022-12-29T15:40:02;5.00;;;1.20;;
12059;SDS011;6091;51.432;6.880;2022-12-29T15:42:45;1.88;;;1.00;;
12059;SDS011;6091;51.432;6.880;2022-12-29T15:45:34;3.08;;;1.10;;
12059;SDS011;6091;51.432;6.880;2022-12-29T15:48:02;1.95;;;0.95;;
12059;SDS011;6091;51.432;6.880;2022-12-29T15:50:35;3.10;;;1.05;;
12059;SDS011;6091;51.432;6.880;2022-12-29T15:53:10;1.75;;;1.10;;
12059;SDS011;6091;51.432;6.880;2022-12-29T15:55:46;3.97;;;1.05;;
12059;SDS011;6091;51.432;6.880;2022-12-29T15:58:23;1.58;;;0.80;;
12059;SDS011;6091;51.432;6.880;2022-12-29T16:00:54;2.75;;;1.00;;
12059;SDS011;6091;51.432;6.880;2022-12-29T16:03:25;4.35;;;1.08;;
12059;SDS011;6091;51.432;6.880;2022-12-29T16:06:24;1.45;;;0.73;;
12059;SDS011;6091;51.432;6.880;2022-12-29T16:09:17;1.33;;;1.10;;
12059;SDS011;6091;51.432;6.880;2022-12-29T16:12:03;2.20;;;0.85;;
12059;SDS011;6091;51.432;6.880;2022-12-29T16:14:52;4.32;;;0.98;;
12059;SDS011;6091;51.432;6.880;2022-12-29T16:17:27;2.72;;;1.00;;
12059;SDS011;6091;51.432;6.880;2022-12-29T16:20:02;4.82;;;1.10;;
12059;SDS011;6091;51.432;6.880;2022-12-29T16:22:57;1.50;;;1.08;;
12059;SDS011;6091;51.432;6.880;2022-12-29T16:25:33;2.22;;;1.20;;
12059;SDS011;6091;51.432;6.880;2022-12-29T16:28:13;2.15;;;1.20;;
12059;SDS011;6091;51.432;6.880;2022-12-29T16:30:59;1.75;;;0.90;;
12059;SDS011;6091;51.432;6.880;2022-12-29T16:33:49;2.00;;;0.93;;
12059;SDS011;6091;51.432;6.880;2022-12-29T16:39:10;2.08;;;1.00;;
12059;SDS011;6091;51.432;6.880;2022-12-29T16:50:31;2.35;;;1.00;;
12059;SDS011;6091;51.432;6.880;2022-12-29T16:53:05;2.78;;;0.93;;
12059;SDS011;6091;51.432;6.880;2022-12-29T16:55:53;1.67;;;0.95;;
12059;SDS011;6091;51.432;6.880;2022-12-29T16:58:26;3.45;;;0.75;;
12059;SDS011;6091;51.432;6.880;2022-12-29T17:00:59;1.45;;;0.88;;
12059;SDS011;6091;51.432;6.880;2022-12-29T17:03:33;2.38;;;1.02;;
12059;SDS011;6091;51.432;6.880;2022-12-29T17:06:08;2.30;;;0.80;;
12059;SDS011;6091;51.432;6.880;2022-12-29T17:08:44;1.67;;;0.80;;
12059;SDS011;6091;51.432;6.880;2022-12-29T17:11:20;2.47;;;1.00;;
12059;SDS011;6091;51.432;6.880;2022-12-29T17:20:18;2.45;;;0.95;;
12059;SDS011;6091;51.432;6.880;2022-12-29T17:22:57;3.67;;;1.00;;
12059;SDS011;6091;51.432;6.880;2022-12-29T17:25:32;1.13;;;0.80;;
12059;SDS011;6091;51.432;6.880;2022-12-29T17:28:03;1.52;;;0.73;;
12059;SDS011;6091;51.432;6.880;2022-12-29T17:30:45;2.22;;;0.90;;
12059;SDS011;6091;51.432;6.880;2022-12-29T17:33:14;1.58;;;0.65;;
12059;SDS011;6091;51.432;6.880;2022-12-29T17:35:44;1.40;;;0.95;;
12059;SDS011;6091;51.432;6.880;2022-12-29T17:38:30;1.30;;;0.85;;
12059;SDS011;6091;51.432;6.880;2022-12-29T17:41:01;0.93;;;0.60;;
12059;SDS011;6091;51.432;6.880;2022-12-29T17:43:29;1.50;;;0.82;;
12059;SDS011;6091;51.432;6.880;2022-12-29T17:46:02;1.00;;;0.88;;
12059;SDS011;6091;51.432;6.880;2022-12-29T17:48:33;1.30;;;1.00;;
12059;SDS011;6091;51.432;6.880;2022-12-29T17:51:00;0.93;;;0.60;;
12059;SDS011;6091;51.432;6.880;2022-12-29T17:53:28;1.13;;;0.75;;
12059;SDS011;6091;51.432;6.880;2022-12-29T17:55:55;0.80;;;0.70;;
12059;SDS011;6091;51.432;6.880;2022-12-29T17:58:24;1.55;;;0.60;;
12059;SDS011;6091;51.432;6.880;2022-12-29T18:00:57;1.30;;;0.73;;
12059;SDS011;6091;51.432;6.880;2022-12-29T18:03:30;0.88;;;0.73;;
12059;SDS011;6091;51.432;6.880;2022-12-29T18:06:04;1.30;;;0.70;;
12059;SDS011;6091;51.432;6.880;2022-12-29T18:08:34;0.90;;;0.80;;
12059;SDS011;6091;51.432;6.880;2022-12-29T18:11:05;1.70;;;0.63;;
12059;SDS011;6091;51.432;6.880;2022-12-29T18:13:46;1.02;;;0.73;;
12059;SDS011;6091;51.432;6.880;2022-12-29T18:16:13;1.40;;;0.85;;
12059;SDS011;6091;51.432;6.880;2022-12-29T18:18:40;0.82;;;0.60;;
12059;SDS011;6091;51.432;6.880;2022-12-29T18:21:08;1.05;;;0.70;;
12059;SDS011;6091;51.432;6.880;2022-12-29T18:23:48;1.08;;;0.70;;
12059;SDS011;6091;51.432;6.880;2022-12-29T18:26:25;1.92;;;0.80;;
12059;SDS011;6091;51.432;6.880;2022-12-29T18:28:59;0.95;;;0.70;;
12059;SDS011;6091;51.432;6.880;2022-12-29T18:31:27;0.77;;;0.68;;
12059;SDS011;6091;51.432;6.880;2022-12-29T18:34:00;1.52;;;0.73;;
12059;SDS011;6091;51.432;6.880;2022-12-29T18:36:37;1.40;;;0.70;;
12059;SDS011;6091;51.432;6.880;2022-12-29T18:39:04;0.60;;;0.60;;
12059;SDS011;6091;51.432;6.880;2022-12-29T18:41:35;0.73;;;0.60;;
12059;SDS011;6091;51.432;6.880;2022-12-29T18:44:01;1.13;;;0.88;;
12059;SDS011;6091;51.432;6.880;2022-12-29T18:46:28;0.88;;;0.88;;